createdAt,value
2018-10-15T00:02:00.144Z,12.85
2018-10-15T00:05:04.703Z,12.86
2018-10-15T00:08:08.640Z,12.89
2018-10-15T00:11:12.582Z,12.93
2018-10-15T00:14:16.500Z,12.93
2018-10-15T00:17:20.439Z,12.87
2018-10-15T00:20:24.519Z,12.84
2018-10-15T00:23:28.444Z,12.82
2018-10-15T00:26:32.463Z,12.86
2018-10-15T00:29:36.347Z,12.85
2018-10-15T00:32:40.943Z,12.79
2018-10-15T00:35:44.849Z,12.72
2018-10-15T00:38:48.782Z,12.76
2018-10-15T00:41:52.694Z,12.74
2018-10-15T00:44:56.618Z,12.72
2018-10-15T00:48:00.555Z,12.67
2018-10-15T00:51:04.475Z,12.63
2018-10-15T00:54:08.402Z,12.65
2018-10-15T00:57:12.325Z,12.66
2018-10-15T01:00:17.450Z,12.65
2018-10-15T01:03:21.576Z,12.61
2018-10-15T01:06:25.505Z,12.62
2018-10-15T01:09:29.631Z,12.62
2018-10-15T01:12:33.535Z,12.55
2018-10-15T01:15:37.462Z,12.54
2018-10-15T01:18:41.385Z,12.50
2018-10-15T01:21:45.652Z,12.45
2018-10-15T01:24:49.778Z,12.38
2018-10-15T01:27:54.248Z,12.39
2018-10-15T01:30:58.186Z,12.37
2018-10-15T01:34:02.106Z,12.42
2018-10-15T01:37:06.537Z,12.45
2018-10-15T01:40:10.442Z,12.44
2018-10-15T01:43:14.384Z,12.46
2018-10-15T01:46:18.647Z,12.45
2018-10-15T01:49:22.569Z,12.43
2018-10-15T01:52:26.503Z,12.43
2018-10-15T01:55:30.422Z,12.44
2018-10-15T01:58:34.348Z,12.42
2018-10-15T02:01:38.283Z,12.42
2018-10-15T02:04:42.561Z,12.41
2018-10-15T02:07:46.471Z,12.40
2018-10-15T02:10:50.733Z,12.37
2018-10-15T02:13:54.671Z,12.35
2018-10-15T02:16:58.592Z,12.35
2018-10-15T02:20:02.511Z,12.32
2018-10-15T02:23:06.955Z,12.31
2018-10-15T02:26:10.902Z,12.31
2018-10-15T02:29:14.843Z,12.27
2018-10-15T02:32:18.770Z,12.27
2018-10-15T02:35:22.704Z,12.23
2018-10-15T02:38:26.978Z,12.23
2018-10-15T02:41:31.438Z,12.17
2018-10-15T02:44:35.586Z,12.13
2018-10-15T02:47:40.014Z,12.08
2018-10-15T02:50:44.290Z,12.07
2018-10-15T02:53:48.208Z,12.09
2018-10-15T02:56:52.122Z,12.11
2018-10-15T02:59:56.051Z,12.07
2018-10-15T03:03:00.168Z,12.06
2018-10-15T03:06:04.338Z,12.05
2018-10-15T03:09:09.843Z,12.06
2018-10-15T03:12:13.773Z,12.03
2018-10-15T03:15:17.922Z,12.03
2018-10-15T03:18:21.849Z,11.99
2018-10-15T03:21:25.812Z,11.98
2018-10-15T03:24:29.729Z,11.93
2018-10-15T03:27:33.994Z,11.84
2018-10-15T03:30:37.966Z,11.80
2018-10-15T03:33:41.890Z,11.84
2018-10-15T03:36:45.837Z,11.84
2018-10-15T03:39:49.768Z,11.88
2018-10-15T03:42:53.699Z,11.78
2018-10-15T03:45:57.702Z,11.70
2018-10-15T03:49:01.646Z,11.66
2018-10-15T03:52:05.587Z,11.71
2018-10-15T03:55:09.523Z,11.73
2018-10-15T03:58:13.447Z,11.76
2018-10-15T04:01:17.713Z,11.77
2018-10-15T04:04:21.660Z,11.74
2018-10-15T04:07:25.572Z,11.76
2018-10-15T04:10:29.519Z,11.72
2018-10-15T04:13:33.732Z,11.71
2018-10-15T04:16:38.149Z,11.65
2018-10-15T04:19:42.103Z,11.59
2018-10-15T04:22:48.432Z,11.58
2018-10-15T04:25:52.555Z,11.62
2018-10-15T04:28:56.508Z,11.64
2018-10-15T04:32:00.439Z,11.62
2018-10-15T04:35:04.827Z,11.60
2018-10-15T04:38:08.779Z,11.59
2018-10-15T04:41:13.036Z,11.58
2018-10-15T04:44:16.959Z,11.51
2018-10-15T04:47:20.912Z,11.38
2018-10-15T04:50:25.050Z,11.29
2018-10-15T04:53:28.978Z,11.25
2018-10-15T04:56:32.927Z,11.20
2018-10-15T04:59:37.008Z,11.17
2018-10-15T05:02:40.948Z,11.15
2018-10-15T05:05:45.290Z,11.08
2018-10-15T05:08:49.483Z,11.00
2018-10-15T05:11:53.435Z,10.97
2018-10-15T05:14:57.370Z,10.92
2018-10-15T05:18:01.307Z,10.91
2018-10-15T05:21:05.495Z,10.86
2018-10-15T05:24:09.610Z,10.84
2018-10-15T05:27:14.039Z,10.85
2018-10-15T05:30:18.529Z,10.88
2018-10-15T05:33:22.608Z,10.83
2018-10-15T05:36:26.521Z,10.81
2018-10-15T05:39:30.747Z,10.80
2018-10-15T05:42:34.671Z,10.76
2018-10-15T05:45:38.818Z,10.76
2018-10-15T05:48:42.734Z,10.73
2018-10-15T05:51:46.762Z,10.74
2018-10-15T05:54:51.225Z,10.73
2018-10-15T05:57:55.310Z,10.73
2018-10-15T06:00:59.228Z,10.74
2018-10-15T06:04:03.150Z,10.66
2018-10-15T06:07:07.053Z,10.64
2018-10-15T06:10:13.456Z,10.61
2018-10-15T06:13:17.421Z,10.60
2018-10-15T06:16:21.517Z,10.59
2018-10-15T06:19:25.463Z,10.59
2018-10-15T06:22:29.378Z,10.61
2018-10-15T06:25:33.312Z,10.57
2018-10-15T06:28:37.240Z,10.70
2018-10-15T06:31:41.175Z,10.84
2018-10-15T06:34:45.112Z,10.92
2018-10-15T06:37:49.032Z,10.99
2018-10-15T06:40:52.967Z,11.04
2018-10-15T06:43:56.916Z,11.06
2018-10-15T06:47:01.374Z,11.12
2018-10-15T06:50:06.084Z,11.15
2018-10-15T06:53:10.022Z,11.15
2018-10-15T06:56:14.156Z,11.20
2018-10-15T06:59:18.145Z,11.22
2018-10-15T07:02:22.306Z,11.25
2018-10-15T07:05:26.360Z,11.27
2018-10-15T07:08:30.298Z,11.29
2018-10-15T07:11:34.214Z,11.35
2018-10-15T07:14:38.549Z,11.40
2018-10-15T07:17:42.798Z,11.46
2018-10-15T07:20:46.765Z,11.53
2018-10-15T07:23:50.842Z,11.60
2018-10-15T07:26:55.106Z,11.68
2018-10-15T07:29:59.046Z,11.76
2018-10-15T07:33:03.155Z,11.83
2018-10-15T07:36:07.099Z,11.91
2018-10-15T07:39:12.502Z,12.01
2018-10-15T07:42:16.478Z,12.09
2018-10-15T07:45:20.556Z,12.17
2018-10-15T07:48:24.655Z,12.27
2018-10-15T07:51:28.572Z,12.35
2018-10-15T07:54:32.486Z,12.44
2018-10-15T07:57:37.127Z,12.55
2018-10-15T08:00:41.051Z,12.64
2018-10-15T08:03:45.351Z,12.74
2018-10-15T08:06:49.398Z,12.84
2018-10-15T08:09:53.399Z,12.94
2018-10-15T08:12:57.703Z,13.04
2018-10-15T08:16:01.650Z,13.16
2018-10-15T08:19:06.084Z,13.25
2018-10-15T08:22:10.588Z,13.35
2018-10-15T08:25:14.808Z,13.47
2018-10-15T08:28:18.828Z,13.57
2018-10-15T08:31:22.898Z,13.66
2018-10-15T08:34:26.808Z,13.75
2018-10-15T08:37:30.923Z,13.86
2018-10-15T08:40:35.027Z,13.94
2018-10-15T08:43:39.153Z,14.04
2018-10-15T08:46:43.062Z,14.14
2018-10-15T08:49:47.313Z,14.23
2018-10-15T08:52:52.144Z,14.32
2018-10-15T08:55:56.075Z,14.41
2018-10-15T08:59:00.182Z,14.49
2018-10-15T09:02:04.449Z,14.58
2018-10-15T09:05:09.696Z,14.64
2018-10-15T09:08:13.875Z,14.71
2018-10-15T09:11:17.761Z,14.77
2018-10-15T09:14:21.691Z,14.82
2018-10-15T09:17:25.810Z,14.87
2018-10-15T09:20:29.733Z,14.93
2018-10-15T09:23:33.655Z,14.97
2018-10-15T09:26:38.117Z,15.00
2018-10-15T09:29:42.615Z,15.04
2018-10-15T09:32:47.082Z,15.08
2018-10-15T09:35:51.190Z,15.10
2018-10-15T09:38:55.134Z,15.13
2018-10-15T09:41:59.583Z,15.16
2018-10-15T09:45:03.605Z,15.18
2018-10-15T09:48:07.684Z,15.20
2018-10-15T09:51:11.639Z,15.25
2018-10-15T09:54:15.718Z,15.26
2018-10-15T09:57:20.072Z,15.29
2018-10-15T10:00:29.602Z,15.32
2018-10-15T10:03:33.515Z,15.35
2018-10-15T10:06:37.423Z,15.38
2018-10-15T10:09:41.322Z,15.42
2018-10-15T10:12:45.484Z,15.43
2018-10-15T10:15:49.523Z,15.47
2018-10-15T10:18:53.479Z,15.50
2018-10-15T10:21:57.612Z,15.54
2018-10-15T10:25:02.024Z,15.56
2018-10-15T10:28:06.118Z,15.58
2018-10-15T10:31:10.031Z,15.60
2018-10-15T10:34:20.797Z,15.63
2018-10-15T10:37:24.713Z,15.66
2018-10-15T10:40:28.705Z,15.68
2018-10-15T10:43:32.730Z,15.71
2018-10-15T10:46:36.642Z,15.74
2018-10-15T10:49:40.575Z,15.78
2018-10-15T10:52:44.674Z,15.82
2018-10-15T10:55:48.590Z,15.85
2018-10-15T10:58:52.511Z,15.90
2018-10-15T11:01:56.824Z,15.93
2018-10-15T11:05:00.883Z,15.96
2018-10-15T11:08:04.885Z,16.00
2018-10-15T11:11:09.282Z,16.05
2018-10-15T11:14:13.180Z,16.07
2018-10-15T11:17:17.122Z,16.11
2018-10-15T11:20:21.056Z,16.16
2018-10-15T11:23:24.973Z,16.18
2018-10-15T11:26:28.894Z,16.23
2018-10-15T11:29:32.819Z,16.26
2018-10-15T11:32:36.952Z,16.31
2018-10-15T11:35:40.872Z,16.34
2018-10-15T11:38:44.786Z,16.38
2018-10-15T11:41:48.724Z,16.44
2018-10-15T11:44:52.835Z,16.47
2018-10-15T11:47:56.736Z,16.52
2018-10-15T11:51:00.989Z,16.55
2018-10-15T11:54:05.180Z,16.59
2018-10-15T11:57:09.197Z,16.64
2018-10-15T12:00:15.340Z,16.68
2018-10-15T12:03:19.274Z,16.73
2018-10-15T12:06:23.378Z,16.77
2018-10-15T12:09:27.273Z,16.82
2018-10-15T12:12:31.178Z,16.86
2018-10-15T12:15:35.078Z,16.88
2018-10-15T12:18:39.000Z,16.94
2018-10-15T12:21:43.229Z,16.98
2018-10-15T12:24:47.167Z,17.02
2018-10-15T12:27:51.075Z,17.06
2018-10-15T12:30:54.986Z,17.11
2018-10-15T12:33:58.902Z,17.14
2018-10-15T12:37:02.839Z,17.20
2018-10-15T12:40:07.532Z,17.25
2018-10-15T12:43:11.451Z,17.29
2018-10-15T12:46:15.387Z,17.33
2018-10-15T12:49:19.290Z,17.38
2018-10-15T12:52:23.216Z,17.41
2018-10-15T12:55:27.139Z,17.47
2018-10-15T12:58:31.047Z,17.51
2018-10-15T13:01:35.417Z,17.55
2018-10-15T13:04:39.635Z,17.60
2018-10-15T13:07:43.691Z,17.65
2018-10-15T13:10:47.611Z,17.68
2018-10-15T13:13:51.643Z,17.72
2018-10-15T13:16:55.664Z,17.77
2018-10-15T13:19:59.584Z,17.80
2018-10-15T13:23:03.495Z,17.85
2018-10-15T13:26:07.746Z,17.88
2018-10-15T13:29:11.654Z,17.92
2018-10-15T13:32:15.588Z,17.97
2018-10-15T13:35:19.499Z,18.02
2018-10-15T13:38:23.413Z,18.06
2018-10-15T13:41:27.659Z,18.10
2018-10-15T13:44:31.571Z,18.14
2018-10-15T13:47:35.480Z,18.18
2018-10-15T13:50:39.614Z,18.23
2018-10-15T13:53:43.518Z,18.26
2018-10-15T13:56:47.442Z,18.29
2018-10-15T13:59:51.431Z,18.34
2018-10-15T14:02:55.331Z,18.38
2018-10-15T14:05:59.246Z,18.42
2018-10-15T14:09:03.458Z,18.45
2018-10-15T14:12:07.374Z,18.47
2018-10-15T14:15:11.295Z,18.51
2018-10-15T14:18:15.219Z,18.54
2018-10-15T14:21:19.151Z,18.55
2018-10-15T14:24:23.279Z,18.57
2018-10-15T14:27:27.259Z,18.58
2018-10-15T14:30:32.343Z,18.59
2018-10-15T14:33:36.367Z,18.62
2018-10-15T14:36:40.285Z,18.63
2018-10-15T14:39:44.198Z,18.65
2018-10-15T14:42:48.474Z,18.65
2018-10-15T14:45:52.390Z,18.65
2018-10-15T14:48:56.320Z,18.66
2018-10-15T14:52:00.425Z,18.66
2018-10-15T14:55:04.772Z,18.66
2018-10-15T14:58:08.788Z,18.67
2018-10-15T15:01:12.811Z,18.66
2018-10-15T15:04:16.763Z,18.64
2018-10-15T15:07:21.070Z,18.64
2018-10-15T15:10:36.415Z,18.62
2018-10-15T15:13:51.823Z,18.62
2018-10-15T15:16:55.749Z,18.61
2018-10-15T15:19:59.679Z,18.57
2018-10-15T15:23:03.929Z,18.56
2018-10-15T15:26:07.875Z,18.53
2018-10-15T15:29:11.787Z,18.50
2018-10-15T15:32:15.708Z,18.48
2018-10-15T15:35:19.875Z,18.44
2018-10-15T15:38:24.132Z,18.40
2018-10-15T15:41:28.112Z,18.34
2018-10-15T15:44:32.498Z,18.30
2018-10-15T15:47:36.440Z,18.24
2018-10-15T15:50:40.376Z,18.20
2018-10-15T15:53:44.295Z,18.15
2018-10-15T15:56:48.211Z,18.09
2018-10-15T15:59:52.139Z,18.03
2018-10-15T16:02:56.076Z,17.97
2018-10-15T16:06:00.194Z,17.91
2018-10-15T16:09:05.911Z,17.86
2018-10-15T16:12:10.011Z,17.79
2018-10-15T16:15:13.929Z,17.74
2018-10-15T16:18:18.046Z,17.67
2018-10-15T16:21:22.316Z,17.61
2018-10-15T16:24:26.259Z,17.54
2018-10-15T16:27:30.532Z,17.48
2018-10-15T16:30:34.463Z,17.41
2018-10-15T16:33:38.731Z,17.34
2018-10-15T16:36:44.371Z,17.29
2018-10-15T16:39:48.297Z,17.22
2018-10-15T16:42:52.226Z,17.14
2018-10-15T16:45:56.196Z,17.08
2018-10-15T16:49:00.309Z,17.02
2018-10-15T16:52:04.391Z,16.96
2018-10-15T16:55:11.127Z,16.90
2018-10-15T16:58:15.292Z,16.82
2018-10-15T17:01:19.219Z,16.77
2018-10-15T17:04:23.170Z,16.71
2018-10-15T17:07:27.107Z,16.63
2018-10-15T17:10:31.047Z,16.57
2018-10-15T17:13:34.978Z,16.51
2018-10-15T17:16:39.094Z,16.45
2018-10-15T17:19:43.067Z,16.39
2018-10-15T17:22:47.208Z,16.33
2018-10-15T17:25:51.324Z,16.28
2018-10-15T17:28:55.268Z,16.21
2018-10-15T17:31:59.391Z,16.17
2018-10-15T17:35:03.317Z,16.11
2018-10-15T17:38:07.262Z,16.05
2018-10-15T17:41:11.202Z,15.98
2018-10-15T17:44:15.130Z,15.92
2018-10-15T17:47:19.078Z,15.85
2018-10-15T17:50:23.015Z,15.79
2018-10-15T17:53:26.930Z,15.73
2018-10-15T17:56:31.078Z,15.69
2018-10-15T17:59:35.020Z,15.63
2018-10-15T18:02:39.492Z,15.58
2018-10-15T18:05:43.427Z,15.53
2018-10-15T18:08:47.347Z,15.49
2018-10-15T18:11:51.856Z,15.45
2018-10-15T18:14:56.259Z,15.38
2018-10-15T18:18:00.196Z,15.35
2018-10-15T18:21:04.112Z,15.31
2018-10-15T18:24:08.070Z,15.27
2018-10-15T18:27:11.986Z,15.22
2018-10-15T18:30:15.903Z,15.18
2018-10-15T18:33:20.018Z,15.12
2018-10-15T18:36:23.938Z,15.07
2018-10-15T18:39:27.864Z,15.03
2018-10-15T18:42:32.219Z,14.98
2018-10-15T18:45:36.164Z,14.91
2018-10-15T18:48:40.271Z,14.87
2018-10-15T18:51:44.292Z,14.82
2018-10-15T18:54:48.570Z,14.78
2018-10-15T18:57:52.497Z,14.73
2018-10-15T19:00:56.426Z,14.69
2018-10-15T19:04:00.507Z,14.64
2018-10-15T19:07:04.496Z,14.57
2018-10-15T19:10:09.122Z,14.53
2018-10-15T19:13:13.039Z,14.47
2018-10-15T19:16:16.976Z,14.43
2018-10-15T19:19:20.927Z,14.38
2018-10-15T19:22:25.353Z,14.31
2018-10-15T19:25:29.278Z,14.28
2018-10-15T19:28:33.386Z,14.21
2018-10-15T19:31:37.305Z,14.17
2018-10-15T19:34:41.231Z,14.13
2018-10-15T19:37:45.487Z,14.10
2018-10-15T19:40:49.405Z,14.05
2018-10-15T19:43:53.527Z,14.01
2018-10-15T19:46:57.426Z,13.96
2018-10-15T19:50:01.468Z,13.92
2018-10-15T19:53:05.807Z,13.87
2018-10-15T19:56:09.942Z,13.84
2018-10-15T19:59:13.871Z,13.76
2018-10-15T20:02:18.147Z,13.73
2018-10-15T20:05:22.051Z,13.71
2018-10-15T20:08:25.979Z,13.66
2018-10-15T20:11:29.890Z,13.61
2018-10-15T20:14:33.825Z,13.57
2018-10-15T20:17:38.347Z,13.53
2018-10-15T20:20:42.288Z,13.46
2018-10-15T20:23:46.691Z,13.43
2018-10-15T20:26:50.619Z,13.41
2018-10-15T20:29:54.743Z,13.39
2018-10-15T20:32:58.663Z,13.39
2018-10-15T20:36:02.576Z,13.34
2018-10-15T20:39:09.039Z,13.27
2018-10-15T20:42:12.952Z,13.21
2018-10-15T20:45:17.210Z,13.18
2018-10-15T20:48:21.503Z,13.13
2018-10-15T20:51:25.592Z,13.09
2018-10-15T20:54:29.502Z,13.08
2018-10-15T20:57:33.486Z,13.09
2018-10-15T21:00:37.899Z,13.01
2018-10-15T21:03:41.822Z,12.98
2018-10-15T21:06:45.733Z,12.93
2018-10-15T21:09:49.960Z,12.90
2018-10-15T21:12:53.888Z,12.89
2018-10-15T21:15:57.795Z,12.87
2018-10-15T21:19:01.722Z,12.85
2018-10-15T21:22:06.023Z,12.87
2018-10-15T21:25:11.567Z,12.79
2018-10-15T21:28:15.486Z,12.77
2018-10-15T21:31:19.414Z,12.73
2018-10-15T21:34:23.365Z,12.73
2018-10-15T21:37:27.299Z,12.69
2018-10-15T21:40:31.222Z,12.72
2018-10-15T21:43:35.159Z,12.69
2018-10-15T21:46:39.077Z,12.66
2018-10-15T21:49:43.027Z,12.61
2018-10-15T21:52:46.959Z,12.58
2018-10-15T21:55:50.902Z,12.56
2018-10-15T21:58:55.012Z,12.54
2018-10-15T22:01:58.930Z,12.49
2018-10-15T22:05:02.871Z,12.51
2018-10-15T22:08:07.135Z,12.47
2018-10-15T22:11:11.059Z,12.40
2018-10-15T22:14:15.310Z,12.38
2018-10-15T22:17:19.235Z,12.32
2018-10-15T22:20:23.174Z,12.33
2018-10-15T22:23:27.101Z,12.33
2018-10-15T22:26:31.223Z,12.29
2018-10-15T22:29:35.160Z,12.26
2018-10-15T22:32:39.237Z,12.24
2018-10-15T22:35:43.169Z,12.20
2018-10-15T22:38:47.514Z,12.19
2018-10-15T22:41:51.441Z,12.20
2018-10-15T22:44:55.371Z,12.14
2018-10-15T22:47:59.315Z,12.12
2018-10-15T22:51:03.583Z,12.10
2018-10-15T22:54:07.513Z,12.11
2018-10-15T22:57:11.643Z,12.06
2018-10-15T23:00:15.558Z,12.06
2018-10-15T23:03:20.011Z,12.02
2018-10-15T23:06:24.451Z,12.00
2018-10-15T23:09:28.884Z,11.97
2018-10-15T23:12:32.819Z,11.93
2018-10-15T23:15:36.766Z,11.90
2018-10-15T23:18:40.751Z,11.89
2018-10-15T23:21:44.838Z,11.88
2018-10-15T23:24:49.091Z,11.82
2018-10-15T23:27:53.364Z,11.85
2018-10-15T23:31:02.592Z,11.79
2018-10-15T23:34:06.533Z,11.77
2018-10-15T23:37:10.798Z,11.71
2018-10-15T23:40:15.063Z,11.71
2018-10-15T23:43:19.024Z,11.72
2018-10-15T23:46:22.972Z,11.63
2018-10-15T23:49:27.104Z,11.64
2018-10-15T23:52:31.259Z,11.63
2018-10-15T23:55:35.191Z,11.58
2018-10-15T23:58:39.454Z,11.52
